Time;durP1;ratioP1;P1;durP2;ratioP2;P2;SDS_P1;SDS_P2;PMS_P1;PMS_P2;Temp;Humidity;BMP_temperature;BMP_pressure;BME280_temperature;BME280_humidity;BME280_pressure;Samples;Min_cycle;Max_cycle;Signal;HPM_P1;HPM_P2
2022/03/21 00:01:24;;;;;;;;;;;14.80;51.70;;;;;;5095112;28;19923;-67
2022/03/21 00:03:52;;;;;;;;;;;14.80;51.70;;;;;;5095043;28;19931;-68
2022/03/21 00:06:19;;;;;;;;;;;14.80;51.70;;;;;;5094864;28;19924;-68
2022/03/21 00:08:46;;;;;;;;;;;14.80;51.70;;;;;;5101383;28;19924;-68
2022/03/21 00:11:12;;;;;;;;;;;14.80;51.70;;;;;;5114201;28;19967;-69
2022/03/21 00:13:39;;;;;;;;;;;14.80;51.70;;;;;;5114728;28;19924;-68
2022/03/21 00:16:06;;;;;;;;;;;14.80;51.70;;;;;;5115461;28;20006;-68
2022/03/21 00:18:33;;;;;;;;;;;14.80;51.70;;;;;;5114884;28;19963;-67
2022/03/21 00:21:00;;;;;;;;;;;14.80;51.70;;;;;;5114989;28;20015;-68
2022/03/21 00:23:31;;;;;;;;;;;14.80;51.70;;;;;;5100882;28;20402;-68
2022/03/21 00:25:58;;;;;;;;;;;14.80;51.70;;;;;;5094504;28;20325;-68
2022/03/21 00:28:24;;;;;;;;;;;14.80;51.70;;;;;;5094360;28;20292;-66
2022/03/21 00:30:52;;;;;;;;;;;15.70;52.20;;;;;;5094366;28;20287;-68
2022/03/21 00:33:19;;;;;;;;;;;14.80;51.70;;;;;;5094116;28;19971;-68
2022/03/21 00:35:48;;;;;;;;;;;14.80;51.70;;;;;;5094359;28;19930;-68
2022/03/21 00:38:16;;;;;;;;;;;14.80;51.70;;;;;;5114603;28;20010;-68
2022/03/21 00:40:44;;;;;;;;;;;14.80;51.70;;;;;;5113529;28;20428;-68
2022/03/21 00:43:11;;;;;;;;;;;14.80;51.70;;;;;;5114264;28;19930;-67
2022/03/21 00:45:38;;;;;;;;;;;14.80;51.70;;;;;;5114373;28;19930;-67
2022/03/21 00:48:05;;;;;;;;;;;14.80;51.70;;;;;;5114654;28;20421;-68
2022/03/21 00:50:31;;;;;;;;;;;14.80;51.70;;;;;;5106666;28;19931;-68
2022/03/21 00:52:58;;;;;;;;;;;14.90;51.70;;;;;;5093631;28;19924;-68
2022/03/21 00:55:28;;;;;;;;;;;14.90;51.70;;;;;;5092777;28;19931;-66
2022/03/21 00:57:55;;;;;;;;;;;14.90;51.70;;;;;;5094165;28;19928;-68
2022/03/21 01:00:24;;;;;;;;;;;14.90;51.70;;;;;;5093656;28;19924;-67
2022/03/21 01:02:50;;;;;;;;;;;14.90;51.70;;;;;;5092486;28;19924;-68
2022/03/21 01:05:17;;;;;;;;;;;14.90;51.70;;;;;;5108491;28;19923;-68
2022/03/21 01:07:44;;;;;;;;;;;14.90;51.70;;;;;;5114073;28;19931;-68
2022/03/21 01:10:11;;;;;;;;;;;14.90;51.70;;;;;;5114362;28;20279;-68
2022/03/21 01:12:39;;;;;;;;;;;14.90;51.70;;;;;;5113490;28;20565;-68
2022/03/21 01:15:06;;;;;;;;;;;14.90;51.70;;;;;;5114089;28;20294;-69
2022/03/21 01:17:32;;;;;;;;;;;14.90;51.70;;;;;;5113194;28;20018;-67
2022/03/21 01:19:59;;;;;;;;;;;14.90;51.70;;;;;;5093589;28;19950;-68
2022/03/21 01:22:25;;;;;;;;;;;14.90;51.70;;;;;;5093046;28;20292;-68
2022/03/21 01:24:52;;;;;;;;;;;14.90;51.70;;;;;;5093502;28;20003;-67
2022/03/21 01:27:19;;;;;;;;;;;14.90;51.70;;;;;;5092254;28;19924;-68
2022/03/21 01:29:47;;;;;;;;;;;14.90;51.70;;;;;;5093181;28;19930;-68
2022/03/21 01:32:13;;;;;;;;;;;14.90;51.70;;;;;;5100266;28;20368;-68
2022/03/21 01:34:40;;;;;;;;;;;14.90;51.70;;;;;;5113411;28;20628;-68
2022/03/21 01:37:06;;;;;;;;;;;15.00;51.70;;;;;;5113181;28;20006;-68
2022/03/21 01:39:33;;;;;;;;;;;14.90;51.70;;;;;;5112514;28;20275;-68
2022/03/21 01:42:00;;;;;;;;;;;14.90;51.70;;;;;;5113429;28;20014;-68
2022/03/21 01:44:26;;;;;;;;;;;14.90;51.70;;;;;;5113317;28;19959;-67
2022/03/21 01:46:54;;;;;;;;;;;15.00;51.70;;;;;;5098139;28;19924;-68
2022/03/21 01:49:21;;;;;;;;;;;14.90;51.70;;;;;;5092911;28;20295;-67
2022/03/21 01:51:47;;;;;;;;;;;14.90;51.70;;;;;;5092572;28;20304;-67
2022/03/21 01:56:58;;;;;;;;;;;14.90;51.70;;;;;;5091543;28;19920;-68
2022/03/21 01:59:26;;;;;;;;;;;14.90;51.70;;;;;;5094666;28;19932;-67
2022/03/21 02:01:53;;;;;;;;;;;14.90;51.70;;;;;;5112248;28;19930;-68
2022/03/21 02:04:21;;;;;;;;;;;14.90;51.60;;;;;;5112895;28;19924;-68
2022/03/21 02:06:47;;;;;;;;;;;14.90;51.70;;;;;;5112944;28;19930;-67
2022/03/21 02:09:14;;;;;;;;;;;14.90;51.70;;;;;;5113095;28;19930;-68
2022/03/21 02:11:41;;;;;;;;;;;14.90;51.70;;;;;;5113244;28;19923;-68
2022/03/21 02:14:08;;;;;;;;;;;14.90;51.70;;;;;;5101171;28;19924;-67
2022/03/21 02:16:35;;;;;;;;;;;14.90;51.70;;;;;;5092698;28;20403;-68
2022/03/21 02:19:02;;;;;;;;;;;14.90;51.70;;;;;;5092325;28;20292;-67
2022/03/21 02:21:33;;;;;;;;;;;15.00;51.70;;;;;;5092489;28;20356;-68
2022/03/21 02:24:00;;;;;;;;;;;15.00;51.80;;;;;;5092166;28;19924;-68
2022/03/21 02:26:30;;;;;;;;;;;15.00;51.70;;;;;;5091812;28;20466;-68
2022/03/21 02:28:58;;;;;;;;;;;15.00;51.70;;;;;;5109252;28;19931;-68
2022/03/21 02:31:25;;;;;;;;;;;15.00;51.70;;;;;;5112851;28;19924;-68
2022/03/21 02:33:52;;;;;;;;;;;15.00;51.70;;;;;;5112580;28;19923;-68
2022/03/21 02:36:19;;;;;;;;;;;15.00;51.70;;;;;;5112745;28;20334;-68
2022/03/21 02:38:46;;;;;;;;;;;15.00;51.70;;;;;;5112781;28;20036;-68
2022/03/21 02:41:13;;;;;;;;;;;14.90;51.60;;;;;;5108851;28;19924;-67
2022/03/21 02:43:51;;;;;;;;;;;15.00;51.70;;;;;;5091959;28;20288;-68
2022/03/21 02:46:18;;;;;;;;;;;15.00;51.70;;;;;;5092304;28;19924;-68
2022/03/21 02:48:45;;;;;;;;;;;15.00;51.70;;;;;;5092498;28;19932;-68
2022/03/21 02:51:11;;;;;;;;;;;15.00;51.70;;;;;;5092051;28;19925;-68
2022/03/21 02:53:39;;;;;;;;;;;15.00;51.70;;;;;;5091724;28;19924;-68
2022/03/21 02:56:05;;;;;;;;;;;15.00;51.70;;;;;;5103704;28;20265;-68
2022/03/21 02:58:32;;;;;;;;;;;15.00;51.60;;;;;;5112419;28;19923;-68
2022/03/21 03:01:07;;;;;;;;;;;14.90;51.60;;;;;;5112586;28;19924;-67
2022/03/21 03:03:33;;;;;;;;;;;15.00;51.70;;;;;;5112594;28;20280;-68
2022/03/21 03:06:00;;;;;;;;;;;15.00;51.70;;;;;;5110827;28;19928;-68
2022/03/21 03:08:26;;;;;;;;;;;15.00;51.70;;;;;;5111126;28;19924;-68
2022/03/21 03:10:53;;;;;;;;;;;15.00;51.70;;;;;;5112401;28;19930;-67
2022/03/21 03:13:19;;;;;;;;;;;15.00;51.70;;;;;;5109572;28;19925;-68
2022/03/21 03:15:47;;;;;;;;;;;15.00;51.60;;;;;;5111832;28;19930;-68
2022/03/21 03:18:15;;;;;;;;;;;15.00;51.70;;;;;;5112636;28;20006;-68
2022/03/21 03:20:42;;;;;;;;;;;15.00;51.70;;;;;;5111262;28;19928;-68
2022/03/21 03:23:09;;;;;;;;;;;15.00;51.60;;;;;;5111924;28;20299;-68
2022/03/21 03:25:36;;;;;;;;;;;15.00;51.70;;;;;;5110578;28;20277;-67
2022/03/21 03:28:04;;;;;;;;;;;15.00;51.70;;;;;;5111272;28;19934;-68
2022/03/21 03:30:31;;;;;;;;;;;15.00;51.70;;;;;;5095573;28;20024;-68
2022/03/21 03:32:57;;;;;;;;;;;15.00;51.70;;;;;;5095543;28;19931;-68
2022/03/21 03:35:25;;;;;;;;;;;15.00;51.70;;;;;;5094383;28;19930;-68
2022/03/21 03:37:51;;;;;;;;;;;15.00;51.70;;;;;;5095583;28;19924;-68
2022/03/21 03:40:19;;;;;;;;;;;15.00;51.70;;;;;;5095454;28;19924;-68
2022/03/21 03:42:45;;;;;;;;;;;15.00;51.70;;;;;;5095043;28;20363;-66
2022/03/21 03:45:13;;;;;;;;;;;15.00;51.70;;;;;;5108499;28;19962;-68
2022/03/21 03:47:40;;;;;;;;;;;15.00;51.70;;;;;;5115574;28;19928;-68
2022/03/21 03:50:08;;;;;;;;;;;15.00;51.70;;;;;;5114068;28;19924;-68
2022/03/21 03:52:36;;;;;;;;;;;15.00;51.70;;;;;;5115211;28;19923;-68
2022/03/21 03:55:02;;;;;;;;;;;15.00;51.70;;;;;;5115876;28;20295;-68
2022/03/21 03:57:29;;;;;;;;;;;15.00;51.70;;;;;;5115349;28;19977;-68
2022/03/21 03:59:55;;;;;;;;;;;15.00;51.70;;;;;;5111167;28;20002;-68
2022/03/21 04:02:22;;;;;;;;;;;15.00;51.70;;;;;;5094949;28;20020;-67
2022/03/21 04:04:49;;;;;;;;;;;14.90;51.70;;;;;;5094729;28;20289;-67
2022/03/21 04:07:18;;;;;;;;;;;15.00;51.70;;;;;;5094688;28;20015;-68
2022/03/21 04:09:46;;;;;;;;;;;15.00;51.70;;;;;;5094983;28;19931;-68
2022/03/21 04:12:13;;;;;;;;;;;15.00;51.70;;;;;;5094514;28;19928;-68
2022/03/21 04:14:40;;;;;;;;;;;15.00;51.70;;;;;;5094516;28;19931;-68
2022/03/21 04:17:07;;;;;;;;;;;15.00;51.70;;;;;;5095776;28;19970;-68
2022/03/21 04:19:34;;;;;;;;;;;15.00;51.70;;;;;;5094312;28;19928;-68
2022/03/21 04:22:00;;;;;;;;;;;15.00;51.70;;;;;;5094651;28;19967;-68
2022/03/21 04:24:27;;;;;;;;;;;15.00;51.70;;;;;;5094514;28;20277;-67
2022/03/21 04:26:55;;;;;;;;;;;15.00;51.70;;;;;;5093265;28;19932;-68
2022/03/21 04:29:22;;;;;;;;;;;15.00;51.70;;;;;;5094575;28;19930;-68
2022/03/21 04:31:48;;;;;;;;;;;15.00;51.70;;;;;;5094754;28;19924;-68
2022/03/21 04:34:15;;;;;;;;;;;15.00;51.70;;;;;;5108765;28;19923;-68
2022/03/21 04:36:42;;;;;;;;;;;15.00;51.70;;;;;;5114489;28;19924;-68
2022/03/21 04:39:09;;;;;;;;;;;14.90;51.70;;;;;;5114887;28;19971;-67
2022/03/21 04:41:35;;;;;;;;;;;15.00;51.70;;;;;;5114654;28;19924;-67
2022/03/21 04:44:04;;;;;;;;;;;15.00;51.80;;;;;;5114181;28;19934;-68
2022/03/21 04:46:31;;;;;;;;;;;14.90;51.60;;;;;;5114302;28;20315;-68
2022/03/21 04:48:57;;;;;;;;;;;14.90;51.70;;;;;;5111740;28;19938;-66
2022/03/21 04:51:24;;;;;;;;;;;14.90;51.70;;;;;;5094102;28;19930;-68
2022/03/21 04:53:50;;;;;;;;;;;14.90;51.80;;;;;;5093951;28;19935;-68
2022/03/21 04:56:17;;;;;;;;;;;14.90;51.70;;;;;;5093691;28;19930;-68
2022/03/21 04:58:44;;;;;;;;;;;14.90;51.70;;;;;;5093732;28;19931;-68
2022/03/21 05:01:12;;;;;;;;;;;14.90;51.70;;;;;;5092723;28;19932;-68
2022/03/21 05:03:38;;;;;;;;;;;14.90;51.70;;;;;;5092212;28;19930;-67
2022/03/21 05:06:06;;;;;;;;;;;14.90;51.70;;;;;;5094504;28;20430;-68
2022/03/21 05:08:32;;;;;;;;;;;14.90;51.70;;;;;;5092692;28;19930;-67
2022/03/21 05:10:59;;;;;;;;;;;14.90;51.70;;;;;;5093810;28;19927;-68
2022/03/21 05:13:26;;;;;;;;;;;14.90;51.70;;;;;;5093218;28;19924;-68
2022/03/21 05:15:52;;;;;;;;;;;14.90;51.70;;;;;;5093460;28;19928;-68
2022/03/21 05:18:21;;;;;;;;;;;14.90;51.70;;;;;;5093801;28;19924;-68
2022/03/21 05:20:48;;;;;;;;;;;14.90;51.70;;;;;;5093776;28;19981;-68
2022/03/21 05:31:27;;;;;;;;;;;14.90;51.70;;;;;;5113489;28;20391;-68
2022/03/21 05:36:38;;;;;;;;;;;14.90;51.70;;;;;;5113766;28;19971;-66
2022/03/21 05:39:05;;;;;;;;;;;14.90;51.70;;;;;;5098541;28;19931;-68
2022/03/21 05:41:32;;;;;;;;;;;14.90;51.70;;;;;;5092757;28;20268;-68
2022/03/21 05:43:59;;;;;;;;;;;14.90;51.70;;;;;;5091455;28;20282;-68
2022/03/21 05:46:26;;;;;;;;;;;14.90;51.70;;;;;;5092959;28;19993;-68
2022/03/21 05:48:59;;;;;;;;;;;14.90;51.70;;;;;;5092612;28;19931;-68
2022/03/21 05:51:28;;;;;;;;;;;14.90;51.70;;;;;;5091718;28;19924;-68
2022/03/21 05:53:55;;;;;;;;;;;14.90;51.70;;;;;;5093915;28;19924;-68
2022/03/21 05:56:22;;;;;;;;;;;14.90;51.70;;;;;;5092709;28;19990;-68
2022/03/21 05:58:48;;;;;;;;;;;14.90;51.70;;;;;;5092905;28;19924;-68
2022/03/21 06:01:18;;;;;;;;;;;14.90;51.70;;;;;;5092703;28;19924;-68
2022/03/21 06:03:45;;;;;;;;;;;14.90;51.70;;;;;;5092704;28;20010;-68
2022/03/21 06:06:14;;;;;;;;;;;14.90;51.70;;;;;;5091540;28;20011;-67
2022/03/21 06:08:40;;;;;;;;;;;14.90;51.70;;;;;;5092637;28;20399;-68
2022/03/21 06:11:08;;;;;;;;;;;14.90;51.60;;;;;;5093372;28;20291;-68
2022/03/21 06:13:35;;;;;;;;;;;14.90;51.70;;;;;;5092579;28;19977;-68
2022/03/21 06:16:04;;;;;;;;;;;14.90;51.70;;;;;;5091401;28;20392;-68
2022/03/21 06:18:31;;;;;;;;;;;14.90;51.70;;;;;;5092528;28;19968;-68
2022/03/21 06:20:58;;;;;;;;;;;14.90;51.70;;;;;;5091390;28;19924;-68
2022/03/21 06:23:25;;;;;;;;;;;14.90;51.70;;;;;;5092142;28;19925;-68
2022/03/21 06:25:53;;;;;;;;;;;14.90;51.60;;;;;;5091129;28;19924;-68
2022/03/21 06:28:20;;;;;;;;;;;14.90;51.60;;;;;;5092591;28;20423;-66
2022/03/21 06:30:47;;;;;;;;;;;14.90;51.60;;;;;;5092589;28;20273;-67
2022/03/21 06:33:13;;;;;;;;;;;14.90;51.60;;;;;;5103193;28;19930;-68
2022/03/21 06:35:40;;;;;;;;;;;14.90;51.60;;;;;;5103306;28;19924;-67
2022/03/21 06:38:07;;;;;;;;;;;14.80;51.50;;;;;;5100801;28;20359;-68
2022/03/21 06:40:35;;;;;;;;;;;14.90;51.60;;;;;;5101126;28;19924;-68
2022/03/21 06:43:01;;;;;;;;;;;14.90;51.60;;;;;;5099405;28;20338;-68
2022/03/21 06:45:28;;;;;;;;;;;14.90;51.60;;;;;;5099052;28;20297;-68
2022/03/21 06:47:55;;;;;;;;;;;12.10;50.00;;;;;;5106204;28;19932;-68
2022/03/21 06:50:22;;;;;;;;;;;15.00;51.60;;;;;;5092593;28;19928;-68
2022/03/21 06:52:49;;;;;;;;;;;15.10;51.80;;;;;;5092182;28;19924;-68
2022/03/21 06:55:16;;;;;;;;;;;15.30;52.10;;;;;;5092538;28;19927;-68
2022/03/21 06:57:45;;;;;;;;;;;15.60;51.90;;;;;;5102939;28;19938;-66
2022/03/21 07:00:13;;;;;;;;;;;15.70;51.60;;;;;;5099517;28;20400;-68
2022/03/21 07:02:40;;;;;;;;;;;15.80;51.40;;;;;;5096395;28;20357;-68
2022/03/21 07:05:07;;;;;;;;;;;15.90;51.30;;;;;;5096238;28;19984;-68
2022/03/21 07:07:34;;;;;;;;;;;15.90;51.20;;;;;;5096115;28;19931;-68
2022/03/21 07:10:00;;;;;;;;;;;16.00;51.30;;;;;;5096622;28;19928;-68
2022/03/21 07:12:27;;;;;;;;;;;16.00;51.30;;;;;;5095738;28;20014;-69
2022/03/21 07:14:55;;;;;;;;;;;16.00;51.20;;;;;;5096251;28;19924;-67
2022/03/21 07:17:21;;;;;;;;;;;16.00;51.20;;;;;;5097182;28;19935;-67
2022/03/21 07:19:48;;;;;;;;;;;16.00;51.10;;;;;;5095996;28;19931;-68
2022/03/21 07:22:15;;;;;;;;;;;16.00;51.20;;;;;;5094493;28;19924;-68
2022/03/21 07:24:41;;;;;;;;;;;16.00;51.20;;;;;;5096423;28;19934;-68
2022/03/21 07:27:08;;;;;;;;;;;16.00;51.20;;;;;;5106321;28;19930;-68
2022/03/21 07:29:34;;;;;;;;;;;16.10;51.20;;;;;;5095890;28;19931;-68
2022/03/21 07:32:03;;;;;;;;;;;16.10;51.10;;;;;;5101538;28;20407;-68
2022/03/21 07:34:29;;;;;;;;;;;16.10;51.40;;;;;;5098148;28;19924;-68
2022/03/21 07:36:56;;;;;;;;;;;16.10;51.40;;;;;;5095853;28;20009;-67
2022/03/21 07:39:23;;;;;;;;;;;16.10;51.20;;;;;;5094637;28;19924;-68
2022/03/21 07:41:49;;;;;;;;;;;16.20;51.30;;;;;;5095816;28;19924;-68
2022/03/21 07:47:17;;;;;;;;;;;16.20;51.30;;;;;;5095305;28;20431;-67
2022/03/21 07:47:20;;;;;;;;;;;16.20;51.30;;;;;;5095438;28;19927;-68
2022/03/21 07:49:47;;;;;;;;;;;16.30;51.30;;;;;;5096767;28;20315;-68
2022/03/21 07:52:13;;;;;;;;;;;16.30;51.30;;;;;;5099998;28;20022;-68
2022/03/21 07:54:40;;;;;;;;;;;16.40;51.30;;;;;;5102881;28;19924;-68
2022/03/21 07:57:07;;;;;;;;;;;16.40;51.30;;;;;;5103882;28;19924;-68
2022/03/21 07:59:34;;;;;;;;;;;16.40;51.20;;;;;;5095713;28;20307;-68
2022/03/21 08:02:03;;;;;;;;;;;16.40;51.20;;;;;;5095642;28;19969;-66
2022/03/21 08:04:32;;;;;;;;;;;16.40;51.20;;;;;;5094682;28;19931;-68
2022/03/21 08:06:59;;;;;;;;;;;16.50;51.20;;;;;;5103095;28;19924;-67
2022/03/21 08:09:27;;;;;;;;;;;16.50;51.10;;;;;;5094956;28;19971;-68
2022/03/21 08:11:54;;;;;;;;;;;16.50;51.10;;;;;;5094775;28;20015;-66
2022/03/21 08:14:21;;;;;;;;;;;16.50;51.30;;;;;;5094589;28;20413;-66
2022/03/21 08:16:47;;;;;;;;;;;16.60;51.30;;;;;;5094996;28;20300;-67
2022/03/21 08:19:16;;;;;;;;;;;16.60;51.40;;;;;;5113613;28;20376;-67
2022/03/21 08:21:44;;;;;;;;;;;16.60;51.20;;;;;;5114127;28;20337;-67
2022/03/21 08:24:12;;;;;;;;;;;16.60;51.30;;;;;;5114872;28;20397;-67
2022/03/21 08:26:39;;;;;;;;;;;16.60;50.90;;;;;;5115319;28;19924;-67
2022/03/21 08:29:06;;;;;;;;;;;16.60;50.40;;;;;;5115182;28;19930;-67
2022/03/21 08:31:33;;;;;;;;;;;16.60;51.30;;;;;;5114863;28;19932;-67
2022/03/21 08:33:59;;;;;;;;;;;16.60;51.30;;;;;;5113176;28;19969;-66
2022/03/21 08:36:27;;;;;;;;;;;16.60;51.30;;;;;;5114988;28;19935;-66
2022/03/21 08:38:55;;;;;;;;;;;16.60;51.30;;;;;;5113980;28;19963;-66
2022/03/21 08:41:22;;;;;;;;;;;16.70;51.30;;;;;;5102349;28;19924;-66
2022/03/21 08:43:49;;;;;;;;;;;16.70;51.20;;;;;;5094037;28;19924;-66
2022/03/21 08:46:15;;;;;;;;;;;16.70;51.20;;;;;;5096721;28;19924;-66
2022/03/21 08:51:26;;;;;;;;;;;16.80;51.00;;;;;;5095637;28;19924;-68
2022/03/21 08:53:55;;;;;;;;;;;16.80;51.00;;;;;;5094156;28;20323;-68
2022/03/21 08:56:22;;;;;;;;;;;16.90;51.50;;;;;;5094428;28;19978;-68
2022/03/21 08:58:48;;;;;;;;;;;16.90;50.90;;;;;;5094119;28;20407;-68
2022/03/21 09:01:15;;;;;;;;;;;16.90;50.90;;;;;;5094242;28;19924;-68
2022/03/21 09:03:41;;;;;;;;;;;16.90;50.80;;;;;;5094099;28;19924;-68
2022/03/21 09:06:08;;;;;;;;;;;16.90;50.80;;;;;;5094508;28;19924;-68
2022/03/21 09:08:35;;;;;;;;;;;16.90;50.70;;;;;;5113028;28;19941;-68
2022/03/21 09:11:04;;;;;;;;;;;16.90;50.80;;;;;;5114253;28;19927;-68
2022/03/21 09:13:31;;;;;;;;;;;16.90;50.70;;;;;;5114092;28;19967;-68
2022/03/21 09:15:58;;;;;;;;;;;16.90;50.70;;;;;;5113861;28;19930;-69
2022/03/21 09:18:24;;;;;;;;;;;16.90;50.70;;;;;;5113091;28;20406;-68
2022/03/21 09:20:51;;;;;;;;;;;16.90;50.70;;;;;;5114258;28;20303;-68
2022/03/21 09:23:17;;;;;;;;;;;16.90;50.80;;;;;;5105788;28;20299;-68
2022/03/21 09:25:44;;;;;;;;;;;16.90;50.80;;;;;;5091772;28;20278;-68
2022/03/21 09:28:12;;;;;;;;;;;16.80;50.70;;;;;;5093718;28;19931;-67
2022/03/21 09:30:39;;;;;;;;;;;16.80;50.70;;;;;;5093857;28;19924;-68
2022/03/21 09:33:06;;;;;;;;;;;16.80;50.80;;;;;;5091876;28;20380;-68
2022/03/21 09:35:32;;;;;;;;;;;16.80;50.70;;;;;;5093326;28;20412;-68
2022/03/21 09:38:00;;;;;;;;;;;16.80;50.80;;;;;;5093060;28;20365;-67
2022/03/21 09:40:26;;;;;;;;;;;16.80;50.80;;;;;;5094650;28;19928;-68
2022/03/21 09:42:53;;;;;;;;;;;16.80;50.80;;;;;;5093261;28;19928;-68
2022/03/21 09:45:21;;;;;;;;;;;16.80;50.80;;;;;;5093613;28;19924;-68
2022/03/21 09:50:35;;;;;;;;;;;16.70;50.80;;;;;;5093272;28;19920;-68
2022/03/21 09:53:02;;;;;;;;;;;16.70;50.80;;;;;;5093301;28;19985;-68
2022/03/21 09:55:28;;;;;;;;;;;16.70;50.90;;;;;;5096770;28;19930;-68
2022/03/21 09:57:55;;;;;;;;;;;16.70;50.80;;;;;;5113377;28;19930;-68
2022/03/21 10:00:23;;;;;;;;;;;16.70;50.90;;;;;;5113123;28;19924;-68
2022/03/21 10:02:49;;;;;;;;;;;16.70;50.90;;;;;;5112093;28;19924;-68
2022/03/21 10:05:35;;;;;;;;;;;16.70;50.90;;;;;;5111983;28;19930;-67
2022/03/21 10:08:11;;;;;;;;;;;16.70;50.90;;;;;;5113375;28;19924;-68
2022/03/21 10:10:37;;;;;;;;;;;16.70;50.90;;;;;;5113371;28;19930;-68
2022/03/21 10:13:04;;;;;;;;;;;16.70;50.90;;;;;;5097270;28;19930;-68
2022/03/21 10:15:32;;;;;;;;;;;16.70;51.50;;;;;;5092625;28;19924;-68
2022/03/21 10:18:05;;;;;;;;;;;16.70;51.00;;;;;;5093003;28;19924;-68
2022/03/21 10:20:32;;;;;;;;;;;16.70;50.90;;;;;;5092537;28;19924;-67
2022/03/21 10:22:59;;;;;;;;;;;16.70;50.90;;;;;;5092371;28;19924;-68
2022/03/21 10:25:27;;;;;;;;;;;16.70;50.90;;;;;;5092416;28;19924;-68
2022/03/21 10:27:54;;;;;;;;;;;16.80;51.00;;;;;;5093730;28;20002;-67
2022/03/21 10:30:22;;;;;;;;;;;16.80;50.90;;;;;;5091480;28;20251;-68
2022/03/21 10:32:52;;;;;;;;;;;16.80;50.90;;;;;;5090949;28;19924;-68
2022/03/21 10:35:20;;;;;;;;;;;16.80;50.90;;;;;;5092249;28;19931;-68
2022/03/21 10:37:48;;;;;;;;;;;16.80;50.90;;;;;;5092743;28;19947;-68
2022/03/21 10:40:32;;;;;;;;;;;16.80;50.90;;;;;;5092499;28;19930;-68
2022/03/21 10:43:01;;;;;;;;;;;16.80;50.90;;;;;;5091797;28;20394;-68
2022/03/21 10:45:39;;;;;;;;;;;16.80;50.90;;;;;;5093324;28;19924;-68
2022/03/21 10:48:08;;;;;;;;;;;16.80;50.90;;;;;;5095666;28;19924;-68
2022/03/21 10:50:35;;;;;;;;;;;16.80;50.90;;;;;;5103396;28;19930;-68
2022/03/21 10:53:05;;;;;;;;;;;16.80;50.90;;;;;;5101716;28;19928;-68
2022/03/21 10:55:32;;;;;;;;;;;16.90;50.90;;;;;;5099936;28;19924;-68
2022/03/21 10:57:59;;;;;;;;;;;16.90;50.90;;;;;;5102208;28;19930;-68
2022/03/21 11:00:26;;;;;;;;;;;16.90;50.80;;;;;;5102899;28;19924;-67
2022/03/21 11:02:54;;;;;;;;;;;16.90;50.80;;;;;;5099348;28;20011;-67
2022/03/21 11:05:22;;;;;;;;;;;16.90;50.70;;;;;;5103534;28;19923;-68
2022/03/21 11:07:49;;;;;;;;;;;17.00;50.70;;;;;;5096755;28;19924;-68
2022/03/21 11:10:16;;;;;;;;;;;17.00;50.70;;;;;;5101513;28;19946;-67
2022/03/21 11:12:42;;;;;;;;;;;17.00;50.70;;;;;;5101145;28;20377;-68
2022/03/21 11:15:09;;;;;;;;;;;17.00;50.60;;;;;;5102855;28;19923;-68
2022/03/21 11:17:36;;;;;;;;;;;17.00;51.30;;;;;;5091933;28;19935;-67
2022/03/21 11:20:03;;;;;;;;;;;17.10;50.60;;;;;;5098436;28;19927;-68
2022/03/21 11:22:31;;;;;;;;;;;17.10;50.60;;;;;;5112319;28;19928;-68
2022/03/21 11:25:00;;;;;;;;;;;17.10;50.60;;;;;;5112312;28;19924;-68
2022/03/21 11:27:31;;;;;;;;;;;17.10;50.50;;;;;;5112753;28;19924;-67
2022/03/21 11:30:00;;;;;;;;;;;17.10;50.50;;;;;;5112293;28;19924;-67
2022/03/21 11:32:30;;;;;;;;;;;17.20;50.50;;;;;;5112559;28;20377;-68
2022/03/21 11:34:58;;;;;;;;;;;17.20;50.50;;;;;;5110909;28;19935;-68
2022/03/21 11:37:26;;;;;;;;;;;17.20;50.50;;;;;;5095781;28;20377;-68
2022/03/21 11:40:23;;;;;;;;;;;17.20;50.40;;;;;;5097164;28;19993;-68
2022/03/21 11:42:51;;;;;;;;;;;17.20;50.40;;;;;;5049182;28;20325;-68
2022/03/21 11:45:21;;;;;;;;;;;17.20;50.40;;;;;;5088705;28;19923;-68
2022/03/21 11:47:48;;;;;;;;;;;17.20;50.40;;;;;;5113964;28;19924;-67
2022/03/21 11:50:27;;;;;;;;;;;17.30;50.40;;;;;;5116036;28;19930;-67
2022/03/21 11:53:07;;;;;;;;;;;17.30;50.40;;;;;;5109469;28;19932;-67
2022/03/21 11:55:36;;;;;;;;;;;17.30;50.40;;;;;;5115105;28;19928;-67
2022/03/21 11:58:17;;;;;;;;;;;17.30;50.60;;;;;;5116034;28;19927;-66
2022/03/21 12:00:59;;;;;;;;;;;17.40;50.60;;;;;;5115475;28;19924;-67
2022/03/21 12:03:27;;;;;;;;;;;17.40;50.60;;;;;;5115169;28;19930;-67
2022/03/21 12:05:54;;;;;;;;;;;17.40;50.60;;;;;;5115441;28;19927;-67
2022/03/21 12:08:45;;;;;;;;;;;17.40;50.60;;;;;;5107932;28;19975;-67
2022/03/21 12:11:26;;;;;;;;;;;17.40;50.50;;;;;;5095149;28;19924;-67
2022/03/21 12:14:13;;;;;;;;;;;17.40;50.40;;;;;;5094650;28;20315;-66
2022/03/21 12:16:39;;;;;;;;;;;17.50;50.50;;;;;;5094903;28;19924;-66
2022/03/21 12:19:08;;;;;;;;;;;17.40;50.40;;;;;;5093701;28;19931;-67
2022/03/21 12:21:34;;;;;;;;;;;17.40;50.30;;;;;;5103904;28;19924;-66
2022/03/21 12:24:17;;;;;;;;;;;17.40;50.30;;;;;;5104212;28;19924;-67
2022/03/21 12:26:50;;;;;;;;;;;17.80;50.50;;;;;;5103879;28;19934;-67
2022/03/21 12:29:32;;;;;;;;;;;17.40;50.30;;;;;;5103450;28;20396;-67
2022/03/21 12:32:14;;;;;;;;;;;17.40;50.30;;;;;;5104498;28;19993;-67
2022/03/21 12:34:42;;;;;;;;;;;17.40;50.30;;;;;;5094048;28;19927;-66
2022/03/21 12:37:09;;;;;;;;;;;17.40;50.30;;;;;;5094368;28;19930;-66
2022/03/21 12:39:36;;;;;;;;;;;17.40;50.30;;;;;;5094531;28;19928;-67
2022/03/21 12:42:03;;;;;;;;;;;17.40;50.30;;;;;;5094453;28;19928;-66
2022/03/21 12:44:31;;;;;;;;;;;17.40;50.30;;;;;;5093950;28;19977;-66
2022/03/21 12:46:57;;;;;;;;;;;17.40;50.30;;;;;;5094469;28;19932;-66
2022/03/21 12:49:24;;;;;;;;;;;17.40;50.30;;;;;;5094384;28;20027;-66
2022/03/21 12:51:52;;;;;;;;;;;17.40;50.30;;;;;;5094130;28;19930;-66
2022/03/21 12:54:18;;;;;;;;;;;17.40;50.30;;;;;;5093922;28;20300;-66
2022/03/21 12:56:45;;;;;;;;;;;17.30;50.30;;;;;;5094243;28;19924;-66
2022/03/21 12:59:11;;;;;;;;;;;17.40;50.40;;;;;;5094025;28;19924;-66
2022/03/21 13:01:38;;;;;;;;;;;17.30;50.30;;;;;;5093980;28;19967;-66
2022/03/21 13:12:28;;;;;;;;;;;17.30;50.50;;;;;;5093672;28;19920;-68
2022/03/21 13:15:00;;;;;;;;;;;17.30;50.50;;;;;;5093765;28;19975;-68
2022/03/21 13:17:42;;;;;;;;;;;17.30;50.50;;;;;;5092916;28;19977;-67
2022/03/21 13:20:09;;;;;;;;;;;17.30;50.60;;;;;;5093790;28;19924;-68
2022/03/21 13:22:37;;;;;;;;;;;17.30;51.00;;;;;;5093352;28;19924;-68
2022/03/21 13:25:04;;;;;;;;;;;17.30;51.10;;;;;;5093474;28;20392;-68
2022/03/21 13:27:33;;;;;;;;;;;17.40;51.20;;;;;;5093188;28;20396;-69
2022/03/21 13:30:00;;;;;;;;;;;17.40;51.30;;;;;;5096805;28;19930;-68
2022/03/21 13:32:27;;;;;;;;;;;17.40;51.30;;;;;;5100387;28;19930;-68
2022/03/21 13:34:54;;;;;;;;;;;17.40;51.20;;;;;;5111021;28;19935;-67
2022/03/21 13:37:21;;;;;;;;;;;17.50;51.30;;;;;;5113644;28;19924;-66
2022/03/21 13:39:58;;;;;;;;;;;17.50;51.30;;;;;;5112781;28;19930;-66
2022/03/21 13:42:25;;;;;;;;;;;17.50;51.30;;;;;;5113420;28;19930;-67
2022/03/21 13:44:52;;;;;;;;;;;17.50;51.30;;;;;;5113570;28;19924;-66
2022/03/21 13:47:19;;;;;;;;;;;17.60;51.40;;;;;;5111312;28;19924;-66
2022/03/21 13:49:49;;;;;;;;;;;17.60;51.30;;;;;;5093753;28;19928;-65
2022/03/21 13:52:17;;;;;;;;;;;17.60;51.30;;;;;;5092619;28;19963;-66
2022/03/21 13:54:50;;;;;;;;;;;17.60;51.30;;;;;;5092946;28;19934;-66
2022/03/21 13:57:18;;;;;;;;;;;17.60;51.30;;;;;;5092104;28;19924;-66
2022/03/21 13:59:58;;;;;;;;;;;17.60;51.30;;;;;;5092959;28;19931;-67
2022/03/21 14:02:24;;;;;;;;;;;17.60;51.30;;;;;;5095521;28;19923;-66
2022/03/21 14:04:53;;;;;;;;;;;17.60;51.30;;;;;;5099358;28;19932;-67
2022/03/21 14:07:19;;;;;;;;;;;17.60;51.30;;;;;;5103527;28;19928;-67
2022/03/21 14:09:49;;;;;;;;;;;17.60;51.30;;;;;;5101623;28;19924;-66
2022/03/21 14:12:16;;;;;;;;;;;17.60;51.30;;;;;;5101643;28;20006;-67
2022/03/21 14:14:43;;;;;;;;;;;17.60;51.30;;;;;;5102360;28;19924;-66
2022/03/21 14:17:10;;;;;;;;;;;17.60;51.30;;;;;;5103163;28;19974;-66
2022/03/21 14:19:38;;;;;;;;;;;17.70;51.30;;;;;;5092883;28;19942;-68
2022/03/21 14:22:05;;;;;;;;;;;17.60;51.30;;;;;;5095451;28;19924;-66
2022/03/21 14:24:32;;;;;;;;;;;17.60;51.30;;;;;;5098113;28;19924;-69
2022/03/21 14:26:57;;;;;;;;;;;17.60;51.30;;;;;;5091910;28;19924;-69
2022/03/21 14:29:24;;;;;;;;;;;17.60;51.30;;;;;;5092263;28;20003;-69
2022/03/21 14:31:52;;;;;;;;;;;17.70;51.40;;;;;;5099699;28;20418;-69
2022/03/21 14:34:19;;;;;;;;;;;17.70;51.40;;;;;;5096658;28;19924;-69
2022/03/21 14:36:47;;;;;;;;;;;17.70;51.40;;;;;;5101231;28;19931;-69
2022/03/21 14:39:15;;;;;;;;;;;17.70;51.40;;;;;;5100711;28;20388;-69
2022/03/21 14:41:41;;;;;;;;;;;17.70;51.40;;;;;;5101478;28;19924;-68
2022/03/21 14:44:08;;;;;;;;;;;17.70;51.40;;;;;;5101277;28;19924;-68
2022/03/21 14:46:34;;;;;;;;;;;17.70;51.40;;;;;;5102969;28;20402;-69
2022/03/21 14:49:02;;;;;;;;;;;17.70;51.40;;;;;;5101534;28;20654;-69